Terminal Aerodrome Forecast
Issued by NWS

Home | Current Version | Previous Version | Text Only | Print | Product List | Glossary On
Versions: 1 2 3 4 5 6 7 8 9 10 11 12 13 14 15
266
FTUS43 KDVN 281745
TAFBRL
TAF
KBRL 281745Z 2818/2918 21012G23KT P6SM SCT035
      TEMPO 2818/2819 3SM TSRA BKN035CB
     FM290000 22012KT 5SM TSRA BR OVC030CB
     FM290300 20008KT P6SM BKN080
      TEMPO 2903/2907 3SM TSRA OVC035CB
     FM291200 23012KT 4SM SHRA VCTS OVC035CB=

USA.gov is the U.S. government's official web portal to all federal, state and local government web resources and services.